createdAt,value
2023-04-16T00:02:36.397Z,11.27
2023-04-16T00:05:39.120Z,10.93
2023-04-16T00:08:43.980Z,10.50
2023-04-16T00:11:46.465Z,10.45
2023-04-16T00:14:49.640Z,10.30
2023-04-16T00:17:52.514Z,9.85
2023-04-16T00:20:55.660Z,9.68
2023-04-16T00:23:58.361Z,9.02
2023-04-16T00:27:01.919Z,10.10
2023-04-16T00:30:07.388Z,8.37
2023-04-16T00:33:10.345Z,9.20
2023-04-16T00:36:12.734Z,8.15
2023-04-16T00:39:16.314Z,9.47
2023-04-16T00:42:19.358Z,8.45
2023-04-16T00:45:22.401Z,8.18
2023-04-16T00:48:27.917Z,9.88
2023-04-16T00:51:32.085Z,10.40
2023-04-16T00:54:34.789Z,9.57
2023-04-16T00:57:37.549Z,9.32
2023-04-16T01:00:40.395Z,9.53
2023-04-16T01:03:49.033Z,9.55
2023-04-16T01:06:51.604Z,9.25
2023-04-16T01:09:54.877Z,9.53
2023-04-16T01:12:57.398Z,10.48
2023-04-16T01:16:01.597Z,9.93
2023-04-16T01:19:04.591Z,8.90
2023-04-16T01:22:07.480Z,8.55
2023-04-16T01:25:14.250Z,9.05
2023-04-16T01:28:17.492Z,8.98
2023-04-16T01:31:20.479Z,8.10
2023-04-16T01:34:33.661Z,8.60
2023-04-16T01:37:36.261Z,8.23
2023-04-16T01:40:39.398Z,8.83
2023-04-16T01:43:42.539Z,7.88
2023-04-16T01:46:47.318Z,9.25
2023-04-16T01:49:51.048Z,8.35
2023-04-16T01:52:53.895Z,8.55
2023-04-16T01:55:56.745Z,8.25
2023-04-16T01:58:59.394Z,8.48
2023-04-16T02:02:14.865Z,9.43
2023-04-16T02:05:17.986Z,9.40
2023-04-16T02:08:22.622Z,9.18
2023-04-16T02:11:25.568Z,9.47
2023-04-16T02:14:30.083Z,9.02
2023-04-16T02:17:33.027Z,9.27
2023-04-16T02:20:49.616Z,8.82
2023-04-16T02:23:52.805Z,8.90
2023-04-16T02:27:01.561Z,9.60
2023-04-16T02:30:04.858Z,9.63
2023-04-16T02:33:11.380Z,8.90
2023-04-16T02:36:17.252Z,8.52
2023-04-16T02:39:20.008Z,9.20
2023-04-16T02:42:23.127Z,8.07
2023-04-16T02:45:25.663Z,8.07
2023-04-16T02:48:28.767Z,7.65
2023-04-16T02:51:33.291Z,8.38
2023-04-16T02:54:36.512Z,8.98
2023-04-16T02:57:39.200Z,8.45
2023-04-16T03:00:42.124Z,8.52
2023-04-16T03:03:44.896Z,8.63
2023-04-16T03:06:47.565Z,8.27
2023-04-16T03:09:50.354Z,8.43
2023-04-16T03:12:53.069Z,8.10
2023-04-16T03:15:55.900Z,8.48
2023-04-16T03:18:58.639Z,8.77
2023-04-16T03:22:01.471Z,9.07
2023-04-16T03:25:04.442Z,7.97
2023-04-16T03:28:07.363Z,8.30
2023-04-16T03:31:10.786Z,9.48
2023-04-16T03:34:14.109Z,8.90
2023-04-16T03:37:18.114Z,9.75
2023-04-16T03:40:20.750Z,9.68
2023-04-16T03:43:24.082Z,9.10
2023-04-16T03:46:26.733Z,8.80
2023-04-16T03:49:29.946Z,8.85
2023-04-16T03:52:34.361Z,8.55
2023-04-16T03:55:37.399Z,7.68
2023-04-16T03:58:40.537Z,8.00
2023-04-16T04:01:44.927Z,6.88
2023-04-16T04:04:48.297Z,7.37
2023-04-16T04:07:51.822Z,7.95
2023-04-16T04:10:54.499Z,7.70
2023-04-16T04:13:59.556Z,7.93
2023-04-16T04:17:02.021Z,8.50
2023-04-16T04:20:05.393Z,8.85
2023-04-16T04:23:08.320Z,8.88
2023-04-16T04:26:11.222Z,8.80
2023-04-16T04:29:14.549Z,8.40
2023-04-16T04:32:17.586Z,8.55
2023-04-16T04:35:21.579Z,9.20
2023-04-16T04:38:25.503Z,9.43
2023-04-16T04:41:29.115Z,8.27
2023-04-16T04:44:32.475Z,8.20
2023-04-16T04:47:35.011Z,8.90
2023-04-16T04:50:38.476Z,8.43
2023-04-16T04:53:41.382Z,9.32
2023-04-16T04:56:46.196Z,8.25
2023-04-16T04:59:49.966Z,9.63
2023-04-16T05:02:52.802Z,8.38
2023-04-16T05:05:55.672Z,8.60
2023-04-16T05:08:58.655Z,7.97
2023-04-16T05:12:01.138Z,7.80
2023-04-16T05:15:04.402Z,7.17
2023-04-16T05:18:06.777Z,7.93
2023-04-16T05:21:10.015Z,7.60
2023-04-16T05:24:14.797Z,8.38
2023-04-16T05:27:17.718Z,7.68
2023-04-16T05:30:20.656Z,7.78
2023-04-16T05:33:23.404Z,8.15
2023-04-16T05:36:26.115Z,9.73
2023-04-16T05:39:29.312Z,9.32
2023-04-16T05:42:32.157Z,9.23
2023-04-16T05:45:39.799Z,8.63
2023-04-16T05:48:42.717Z,7.68
2023-04-16T05:51:45.475Z,8.00
2023-04-16T05:54:48.170Z,8.90
2023-04-16T05:57:51.198Z,7.85
2023-04-16T06:00:54.286Z,7.93
2023-04-16T06:03:57.161Z,7.85
2023-04-16T06:07:00.052Z,7.13
2023-04-16T06:10:03.215Z,7.05
2023-04-16T06:13:05.797Z,7.57
2023-04-16T06:16:08.742Z,7.33
2023-04-16T06:19:11.863Z,7.60
2023-04-16T06:22:15.040Z,7.63
2023-04-16T06:25:18.318Z,7.47
2023-04-16T06:28:21.426Z,7.40
2023-04-16T06:31:24.733Z,7.25
2023-04-16T06:34:28.589Z,6.43
2023-04-16T06:37:31.221Z,6.83
2023-04-16T06:40:34.414Z,6.90
2023-04-16T06:43:54.935Z,6.03
2023-04-16T06:50:56.363Z,6.00
2023-04-16T06:53:59.773Z,6.63
2023-04-16T06:57:02.154Z,5.63
2023-04-16T07:00:40.470Z,6.65
2023-04-16T07:03:58.428Z,5.93
2023-04-16T07:07:01.696Z,5.70
2023-04-16T07:10:05.823Z,6.30
2023-04-16T07:13:08.781Z,5.72
2023-04-16T07:16:12.255Z,5.00
2023-04-16T07:19:15.466Z,5.57
2023-04-16T07:22:17.974Z,5.47
2023-04-16T07:25:21.126Z,4.60
2023-04-16T07:28:25.290Z,4.07
2023-04-16T07:31:28.524Z,3.88
2023-04-16T07:34:31.677Z,3.50
2023-04-16T07:37:34.578Z,3.80
2023-04-16T07:40:37.572Z,3.20
2023-04-16T07:43:40.758Z,3.38
2023-04-16T07:46:47.100Z,3.50
2023-04-16T07:49:51.011Z,3.30
2023-04-16T07:52:53.538Z,3.15
2023-04-16T07:55:56.510Z,2.92
2023-04-16T07:59:14.476Z,3.38
2023-04-16T08:02:22.471Z,2.97
2023-04-16T08:05:25.125Z,2.95
2023-04-16T08:08:28.160Z,2.75
2023-04-16T08:11:31.058Z,2.53
2023-04-16T08:14:33.877Z,2.40
2023-04-16T08:17:37.767Z,2.58
2023-04-16T08:20:41.255Z,2.27
2023-04-16T08:23:43.822Z,2.42
2023-04-16T08:26:46.728Z,2.40
2023-04-16T08:29:49.877Z,2.08
2023-04-16T08:32:53.366Z,2.05
2023-04-16T08:35:56.203Z,2.22
2023-04-16T08:38:58.875Z,2.15
2023-04-16T08:42:04.692Z,1.93
2023-04-16T08:45:10.302Z,2.20
2023-04-16T08:48:13.330Z,2.55
2023-04-16T08:51:18.882Z,1.73
2023-04-16T08:54:56.968Z,2.40
2023-04-16T08:58:01.453Z,1.98
2023-04-16T09:01:04.064Z,2.65
2023-04-16T09:04:09.350Z,1.92
2023-04-16T09:07:12.601Z,2.05
2023-04-16T09:10:16.753Z,1.90
2023-04-16T09:13:20.607Z,2.20
2023-04-16T09:16:25.395Z,2.25
2023-04-16T09:19:28.688Z,1.80
2023-04-16T09:22:31.882Z,2.00
2023-04-16T09:25:38.569Z,2.45
2023-04-16T09:28:46.693Z,2.30
2023-04-16T09:32:03.297Z,2.20
2023-04-16T09:35:06.357Z,2.03
2023-04-16T09:38:08.913Z,1.90
2023-04-16T09:41:11.599Z,1.92
2023-04-16T09:44:14.244Z,2.03
2023-04-16T09:47:17.294Z,1.90
2023-04-16T09:50:20.614Z,1.83
2023-04-16T09:53:31.023Z,1.73
2023-04-16T09:56:33.653Z,1.90
2023-04-16T09:59:36.874Z,1.58
2023-04-16T10:02:43.046Z,1.60
2023-04-16T10:05:46.370Z,2.10
2023-04-16T10:08:50.752Z,1.70
2023-04-16T10:11:53.891Z,1.70
2023-04-16T10:14:56.649Z,1.60
2023-04-16T10:18:00.593Z,1.60
2023-04-16T10:21:03.503Z,1.73
2023-04-16T10:24:07.480Z,1.70
2023-04-16T10:27:10.002Z,2.08
2023-04-16T10:30:15.122Z,1.60
2023-04-16T10:33:17.806Z,1.70
2023-04-16T10:36:25.347Z,1.50
2023-04-16T10:39:29.509Z,1.58
2023-04-16T10:42:32.457Z,1.33
2023-04-16T10:45:38.303Z,1.50
2023-04-16T10:48:49.661Z,2.13
2023-04-16T10:52:02.421Z,1.60
2023-04-16T10:55:05.554Z,1.50
2023-04-16T10:58:36.826Z,1.50
2023-04-16T11:01:44.206Z,1.45
2023-04-16T11:04:48.516Z,1.77
2023-04-16T11:07:51.414Z,1.60
2023-04-16T11:10:58.390Z,1.75
2023-04-16T11:14:01.226Z,1.55
2023-04-16T11:17:04.113Z,1.47
2023-04-16T11:20:17.723Z,1.55
2023-04-16T11:23:23.136Z,1.30
2023-04-16T11:26:28.345Z,1.30
2023-04-16T11:29:31.078Z,1.30
2023-04-16T11:32:36.001Z,1.30
2023-04-16T11:35:39.663Z,1.48
2023-04-16T11:38:43.315Z,1.50
2023-04-16T11:41:52.460Z,1.38
2023-04-16T11:44:56.812Z,1.20
2023-04-16T11:47:59.305Z,1.10
2023-04-16T11:51:02.365Z,1.05
2023-04-16T11:54:04.917Z,0.90
2023-04-16T11:57:07.759Z,1.10
2023-04-16T12:00:13.011Z,1.35
2023-04-16T12:03:16.033Z,1.30
2023-04-16T12:06:18.785Z,1.48
2023-04-16T12:09:27.948Z,1.40
2023-04-16T12:12:32.295Z,1.20
2023-04-16T12:15:51.839Z,1.33
2023-04-16T12:19:02.896Z,1.07
2023-04-16T12:22:05.570Z,1.10
2023-04-16T12:25:12.042Z,1.17
2023-04-16T12:28:16.808Z,0.87
2023-04-16T12:31:37.270Z,1.13
2023-04-16T12:34:51.718Z,0.90
2023-04-16T12:37:54.377Z,1.20
2023-04-16T12:40:57.978Z,1.35
2023-04-16T12:44:29.453Z,0.80
2023-04-16T12:47:33.334Z,1.20
2023-04-16T12:50:36.271Z,0.90
2023-04-16T12:53:39.298Z,1.30
2023-04-16T12:56:41.776Z,1.17
2023-04-16T12:59:44.897Z,1.17
2023-04-16T13:02:47.606Z,1.20
2023-04-16T13:05:50.883Z,0.98
2023-04-16T13:08:53.457Z,1.08
2023-04-16T13:11:56.565Z,1.00
2023-04-16T13:14:59.423Z,0.95
2023-04-16T13:18:02.280Z,1.50
2023-04-16T13:21:05.073Z,1.00
2023-04-16T13:24:07.978Z,1.10
2023-04-16T13:27:11.389Z,1.13
2023-04-16T13:30:14.843Z,0.80
2023-04-16T13:33:17.409Z,1.00
2023-04-16T13:36:20.426Z,0.90
2023-04-16T13:39:23.277Z,0.80
2023-04-16T13:42:26.044Z,0.90
2023-04-16T13:45:29.006Z,0.90
2023-04-16T13:48:33.020Z,0.82
2023-04-16T13:51:36.122Z,0.93
2023-04-16T13:54:40.555Z,1.15
2023-04-16T13:57:42.993Z,1.13
2023-04-16T14:00:46.336Z,1.27
2023-04-16T14:03:49.587Z,1.27
2023-04-16T14:06:52.825Z,1.38
2023-04-16T14:09:55.612Z,1.17
2023-04-16T14:12:58.788Z,1.08
2023-04-16T14:16:02.407Z,1.23
2023-04-16T14:19:05.364Z,1.20
2023-04-16T14:22:09.387Z,1.10
2023-04-16T14:25:12.712Z,1.20
2023-04-16T14:28:15.797Z,1.10
2023-04-16T14:31:20.110Z,1.07
2023-04-16T14:34:22.525Z,1.23
2023-04-16T14:37:26.568Z,0.98
2023-04-16T14:40:29.398Z,1.25
2023-04-16T14:43:32.456Z,1.20
2023-04-16T14:46:34.982Z,1.15
2023-04-16T14:49:37.609Z,1.00
2023-04-16T14:52:40.418Z,1.27
2023-04-16T14:55:43.236Z,1.20
2023-04-16T14:58:45.834Z,1.63
2023-04-16T15:01:49.270Z,2.37
2023-04-16T15:04:52.005Z,2.60
2023-04-16T15:07:55.369Z,7.90
2023-04-16T15:10:58.264Z,7.03
2023-04-16T15:14:01.995Z,30.08
2023-04-16T15:17:04.855Z,15.35
2023-04-16T15:20:10.787Z,6.75
2023-04-16T15:23:13.542Z,2.20
2023-04-16T15:26:16.594Z,1.60
2023-04-16T15:29:19.111Z,3.15
2023-04-16T15:32:22.393Z,2.00
2023-04-16T15:35:24.886Z,3.05
2023-04-16T15:38:29.928Z,5.00
2023-04-16T15:41:36.278Z,2.15
2023-04-16T15:44:39.756Z,1.77
2023-04-16T15:47:45.238Z,1.90
2023-04-16T15:50:48.978Z,2.22
2023-04-16T15:53:51.967Z,1.50
2023-04-16T15:56:54.859Z,1.67
2023-04-16T16:00:06.476Z,1.50
2023-04-16T16:03:10.696Z,2.07
2023-04-16T16:06:13.698Z,2.45
2023-04-16T16:09:17.073Z,3.17
2023-04-16T16:12:19.662Z,1.90
2023-04-16T16:15:22.714Z,2.63
2023-04-16T16:18:25.599Z,3.30
2023-04-16T16:21:30.347Z,2.10
2023-04-16T16:24:33.133Z,1.53
2023-04-16T16:27:36.584Z,1.30
2023-04-16T16:30:39.260Z,1.50
2023-04-16T16:33:42.859Z,1.70
2023-04-16T16:36:46.614Z,1.00
2023-04-16T16:39:49.642Z,1.00
2023-04-16T16:42:52.781Z,1.27
2023-04-16T16:45:56.024Z,0.93
2023-04-16T16:48:59.247Z,1.13
2023-04-16T16:52:02.285Z,1.83
2023-04-16T16:55:05.629Z,1.17
2023-04-16T16:58:09.507Z,1.40
2023-04-16T17:01:12.432Z,1.80
2023-04-16T17:04:18.580Z,1.67
2023-04-16T17:07:22.653Z,1.60
2023-04-16T17:10:26.612Z,1.33
2023-04-16T17:13:30.180Z,1.63
2023-04-16T17:16:33.259Z,8.10
2023-04-16T17:19:36.292Z,17.95
2023-04-16T17:22:40.148Z,3.78
2023-04-16T17:25:43.021Z,3.30
2023-04-16T17:28:45.989Z,3.60
2023-04-16T17:31:48.743Z,5.32
2023-04-16T17:34:51.822Z,3.47
2023-04-16T17:37:54.248Z,2.50
2023-04-16T17:40:57.899Z,2.00
2023-04-16T17:44:01.030Z,4.45
2023-04-16T17:47:04.017Z,9.00
2023-04-16T17:50:11.159Z,19.65
2023-04-16T17:53:14.648Z,15.32
2023-04-16T17:56:17.415Z,17.23
2023-04-16T17:59:20.673Z,19.42
2023-04-16T18:02:24.099Z,16.85
2023-04-16T18:05:34.218Z,5.07
2023-04-16T18:08:37.321Z,3.67
2023-04-16T18:11:40.058Z,4.32
2023-04-16T18:14:44.841Z,4.15
2023-04-16T18:17:48.129Z,2.35
2023-04-16T18:20:52.294Z,2.53
2023-04-16T18:23:54.856Z,2.20
2023-04-16T18:26:57.634Z,2.77
2023-04-16T18:30:04.046Z,2.20
2023-04-16T18:33:34.399Z,4.13
2023-04-16T18:36:31.302Z,3.23
2023-04-16T18:39:34.235Z,3.10
2023-04-16T18:42:37.348Z,3.70
2023-04-16T18:45:41.077Z,4.20
2023-04-16T18:48:47.281Z,3.88
2023-04-16T18:51:50.392Z,4.25
2023-04-16T18:54:53.712Z,5.50
2023-04-16T18:57:56.522Z,7.80
2023-04-16T19:00:59.613Z,10.18
2023-04-16T19:04:03.548Z,8.65
2023-04-16T19:07:06.525Z,7.37
2023-04-16T19:10:09.737Z,5.88
2023-04-16T19:13:12.734Z,5.70
2023-04-16T19:16:16.011Z,6.03
2023-04-16T19:19:19.062Z,4.50
2023-04-16T19:22:22.009Z,5.13
2023-04-16T19:25:25.057Z,4.63
2023-04-16T19:28:28.416Z,4.60
2023-04-16T19:31:31.537Z,4.60
2023-04-16T19:34:34.331Z,4.93
2023-04-16T19:37:37.505Z,5.43
2023-04-16T19:40:41.119Z,4.40
2023-04-16T19:43:45.574Z,3.70
2023-04-16T19:46:48.490Z,2.92
2023-04-16T19:49:51.344Z,3.25
2023-04-16T19:52:54.164Z,2.60
2023-04-16T19:55:57.014Z,2.92
2023-04-16T19:59:02.087Z,2.87
2023-04-16T20:02:05.449Z,2.60
2023-04-16T20:05:08.458Z,2.88
2023-04-16T20:08:11.590Z,2.90
2023-04-16T20:11:14.417Z,2.10
2023-04-16T20:14:17.662Z,2.28
2023-04-16T20:17:20.411Z,2.20
2023-04-16T20:20:23.888Z,1.83
2023-04-16T20:23:26.517Z,1.80
2023-04-16T20:26:34.039Z,2.00
2023-04-16T20:29:37.090Z,2.17
2023-04-16T20:32:40.011Z,1.63
2023-04-16T20:35:42.771Z,2.40
2023-04-16T20:38:46.773Z,2.30
2023-04-16T20:41:56.752Z,2.58
2023-04-16T20:45:00.963Z,2.70
2023-04-16T20:48:07.550Z,2.90
2023-04-16T20:51:10.384Z,2.72
2023-04-16T20:54:12.966Z,3.15
2023-04-16T20:57:15.851Z,3.38
2023-04-16T21:00:18.911Z,2.90
2023-04-16T21:03:22.276Z,3.13
2023-04-16T21:06:24.971Z,3.50
2023-04-16T21:09:27.725Z,2.63
2023-04-16T21:12:30.489Z,3.28
2023-04-16T21:15:35.117Z,2.75
2023-04-16T21:18:38.138Z,3.50
2023-04-16T21:21:42.078Z,3.75
2023-04-16T21:24:44.829Z,3.53
2023-04-16T21:27:47.693Z,3.47
2023-04-16T21:30:53.192Z,3.70
2023-04-16T21:33:56.311Z,3.97
2023-04-16T21:36:59.296Z,4.00
2023-04-16T21:40:02.775Z,3.80
2023-04-16T21:43:05.371Z,4.15
2023-04-16T21:46:08.118Z,3.83
2023-04-16T21:49:11.318Z,3.50
2023-04-16T21:52:14.604Z,4.22
2023-04-16T21:55:17.320Z,4.68
2023-04-16T21:58:20.056Z,4.78
2023-04-16T22:01:22.869Z,4.50
2023-04-16T22:04:37.196Z,4.75
2023-04-16T22:07:39.868Z,4.82
2023-04-16T22:10:42.594Z,5.03
2023-04-16T22:13:46.391Z,4.47
2023-04-16T22:16:51.860Z,4.82
2023-04-16T22:19:54.598Z,4.75
2023-04-16T22:22:58.786Z,4.78
2023-04-16T22:26:02.815Z,4.70
2023-04-16T22:29:05.781Z,4.65
2023-04-16T22:32:08.659Z,4.70
2023-04-16T22:35:12.728Z,4.30
2023-04-16T22:38:16.485Z,5.00
2023-04-16T22:41:19.498Z,4.90
2023-04-16T22:44:22.159Z,4.18
2023-04-16T22:47:25.586Z,4.68
2023-04-16T22:50:28.606Z,4.13
2023-04-16T22:53:31.765Z,3.65
2023-04-16T22:56:34.286Z,3.60
2023-04-16T22:59:37.045Z,4.05
2023-04-16T23:02:40.218Z,4.13
2023-04-16T23:05:43.241Z,4.20
2023-04-16T23:08:45.629Z,4.13
2023-04-16T23:11:49.264Z,4.13
2023-04-16T23:14:53.168Z,4.22
2023-04-16T23:17:56.438Z,4.70
2023-04-16T23:20:58.961Z,4.30
2023-04-16T23:24:02.202Z,3.70
2023-04-16T23:27:04.696Z,3.97
2023-04-16T23:30:08.443Z,3.72
2023-04-16T23:33:14.364Z,3.73
2023-04-16T23:36:17.499Z,4.30
2023-04-16T23:39:20.034Z,4.10
2023-04-16T23:42:23.476Z,4.20
2023-04-16T23:45:25.937Z,4.28
2023-04-16T23:48:28.986Z,4.80
2023-04-16T23:51:31.680Z,4.55
2023-04-16T23:54:34.695Z,4.82
2023-04-16T23:57:37.038Z,3.70
